Time;durP1;ratioP1;P1;durP2;ratioP2;P2;SDS_P1;SDS_P2;PMS_P1;PMS_P2;Temp;Humidity;BMP_temperature;BMP_pressure;BME280_temperature;BME280_humidity;BME280_pressure;Samples;Min_cycle;Max_cycle;Signal;HPM_P1;HPM_P2
2022/11/20 00:01:20;;;;;;;0.05;0.00;;;;;;;8.99;78.77;99884.19;4933890;29;20098;-83
2022/11/20 00:03:46;;;;;;;0.10;0.00;;;;;;;9.27;78.48;99869.31;4925557;29;20036;-83
2022/11/20 00:06:14;;;;;;;0.00;0.00;;;;;;;9.40;76.98;99890.56;4940924;28;20053;-83
2022/11/20 00:08:40;;;;;;;0.00;0.00;;;;;;;9.38;78.97;99876.09;4942438;28;20036;-84
2022/11/20 00:11:13;;;;;;;3.47;0.30;;;;;;;9.32;77.62;99882.69;4942276;29;20455;-84
2022/11/20 00:13:39;;;;;;;0.10;0.00;;;;;;;9.38;78.44;99883.88;4925983;29;20040;-84
2022/11/20 00:16:06;;;;;;;0.28;0.00;;;;;;;9.43;77.37;99873.84;4928001;29;20036;-84
2022/11/20 00:18:33;;;;;;;0.20;0.00;;;;;;;9.45;78.77;99867.50;4937662;28;20030;-84
2022/11/20 00:21:07;;;;;;;0.10;0.00;;;;;;;9.41;76.40;99868.78;4934035;28;20560;-83
2022/11/20 00:23:33;;;;;;;0.10;0.00;;;;;;;9.34;78.69;99872.16;4935583;29;20031;-83
2022/11/20 00:26:07;;;;;;;0.10;0.00;;;;;;;9.30;77.80;99872.44;4936793;28;20032;-83
2022/11/20 00:28:32;;;;;;;0.30;0.00;;;;;;;9.37;78.84;99864.03;4934984;29;20126;-84
2022/11/20 00:31:23;;;;;;;0.32;0.00;;;;;;;9.37;79.68;99859.66;4930731;29;20126;-84
2022/11/20 00:33:49;;;;;;;0.20;0.00;;;;;;;9.45;76.21;99869.31;4932968;29;20198;-84
2022/11/20 00:36:16;;;;;;;0.00;0.00;;;;;;;9.68;73.63;99895.63;4931867;29;20075;-84
2022/11/20 00:38:43;;;;;;;0.30;0.00;;;;;;;9.65;76.70;99878.53;4934154;29;20031;-84
2022/11/20 00:41:10;;;;;;;0.10;0.00;;;;;;;9.53;77.67;99893.56;4932949;29;20448;-85
2022/11/20 00:43:36;;;;;;;0.22;0.03;;;;;;;9.54;76.80;99887.41;4933170;29;20053;-84
2022/11/20 00:46:08;;;;;;;0.00;0.00;;;;;;;9.37;79.80;99877.03;4934031;29;20035;-84
2022/11/20 00:48:33;;;;;;;0.10;0.00;;;;;;;9.18;80.87;99907.44;4934414;28;20032;-85
2022/11/20 00:50:59;;;;;;;0.28;0.00;;;;;;;9.06;82.35;99887.00;4931815;28;21032;-84
2022/11/20 00:53:25;;;;;;;1.48;0.00;;;;;;;8.97;84.44;99907.75;4932163;29;20036;-84
2022/11/20 00:55:56;;;;;;;0.08;0.00;;;;;;;8.86;86.13;99892.34;4931381;29;20146;-84
2022/11/20 00:58:23;;;;;;;0.00;0.00;;;;;;;8.79;86.25;99888.72;4932331;29;20038;-84
2022/11/20 01:00:49;;;;;;;0.10;0.00;;;;;;;8.64;86.78;99897.97;4933393;29;20036;-85
2022/11/20 01:03:16;;;;;;;0.00;0.00;;;;;;;8.60;87.98;99907.81;4932306;29;20494;-84
2022/11/20 01:05:42;;;;;;;0.40;0.00;;;;;;;8.55;89.20;99909.22;4931345;29;20035;-84
2022/11/20 01:08:07;;;;;;;0.13;0.00;;;;;;;8.45;89.84;99919.69;4931148;29;20040;-84
2022/11/20 01:10:33;;;;;;;0.17;0.00;;;;;;;8.47;90.08;99909.97;4928854;29;20111;-84
2022/11/20 01:15:42;;;;;;;0.15;0.00;;;;;;;8.40;90.77;99911.50;4932973;29;20424;-84
2022/11/20 01:18:08;;;;;;;0.32;0.00;;;;;;;8.32;91.92;99904.41;4932375;29;20032;-84
2022/11/20 01:20:36;;;;;;;0.10;0.10;;;;;;;8.20;92.32;99908.13;4933157;28;20036;-84
2022/11/20 01:23:03;;;;;;;0.20;0.10;;;;;;;8.23;90.57;99907.84;4936962;29;20085;-84
2022/11/20 01:25:28;;;;;;;0.25;0.00;;;;;;;8.23;91.35;99930.38;4931314;29;20035;-84
2022/11/20 01:27:54;;;;;;;0.20;0.00;;;;;;;8.17;90.62;99916.19;4931051;28;20487;-84
2022/11/20 01:30:19;;;;;;;0.10;0.00;;;;;;;8.19;91.92;99914.28;4931828;29;20099;-84
2022/11/20 01:32:45;;;;;;;1.00;0.00;;;;;;;8.14;92.31;99937.22;4934469;29;20095;-84
2022/11/20 01:35:10;;;;;;;0.00;0.00;;;;;;;8.14;92.40;99932.03;4927152;29;20483;-84
2022/11/20 01:37:36;;;;;;;0.10;0.00;;;;;;;8.15;93.40;99915.50;4930891;29;20032;-84
2022/11/20 01:40:02;;;;;;;0.10;0.00;;;;;;;8.09;93.47;99923.03;4935105;29;20051;-84
2022/11/20 01:45:49;;;;;;;0.40;0.08;;;;;;;7.99;92.70;99933.47;4931908;29;20074;-84
2022/11/20 01:48:15;;;;;;;0.57;0.05;;;;;;;7.99;94.12;99936.06;4931103;28;20137;-84
2022/11/20 01:50:41;;;;;;;0.15;0.10;;;;;;;7.89;94.44;99938.69;4934880;29;20053;-84
2022/11/20 01:53:12;;;;;;;0.10;0.00;;;;;;;7.90;95.12;99934.31;4933830;29;20074;-84
2022/11/20 01:56:00;;;;;;;4.68;0.00;;;;;;;7.87;94.11;99940.59;4935883;29;20067;-84
2022/11/20 01:58:30;;;;;;;0.10;0.00;;;;;;;7.89;96.24;99933.50;4933970;29;20042;-84
2022/11/20 02:00:56;;;;;;;0.17;0.00;;;;;;;7.82;97.10;99932.41;4933854;29;20123;-84
2022/11/20 02:03:21;;;;;;;0.10;0.00;;;;;;;7.81;98.29;99932.56;4935665;29;20031;-84
2022/11/20 02:05:55;;;;;;;0.50;0.00;;;;;;;7.75;98.12;99930.50;4935853;29;20039;-84
2022/11/20 02:08:22;;;;;;;0.38;0.00;;;;;;;7.78;98.76;99928.47;4933482;29;20044;-84
2022/11/20 02:10:48;;;;;;;0.13;0.00;;;;;;;7.77;98.72;99932.00;4933269;29;20053;-84
2022/11/20 02:15:58;;;;;;;0.30;0.00;;;;;;;7.76;99.91;99937.34;4934524;29;20526;-84
2022/11/20 02:18:24;;;;;;;1.27;0.00;;;;;;;7.76;100.00;99930.38;4934607;29;20039;-84
2022/11/20 02:21:06;;;;;;;0.10;0.00;;;;;;;7.71;100.00;99931.75;4933765;29;20046;-84
2022/11/20 02:23:56;;;;;;;0.17;0.00;;;;;;;7.70;100.00;99928.34;4938568;29;20103;-84
2022/11/20 02:26:23;;;;;;;0.13;0.00;;;;;;;7.73;100.00;99922.88;4933606;29;20039;-84
2022/11/20 02:28:50;;;;;;;0.20;0.00;;;;;;;7.73;100.00;99928.06;4934333;29;20035;-84
2022/11/20 02:31:16;;;;;;;0.00;0.00;;;;;;;7.73;100.00;99927.25;4933270;29;20132;-84
2022/11/20 02:33:41;;;;;;;0.57;0.00;;;;;;;7.74;100.00;99923.69;4940645;29;20032;-84
2022/11/20 02:36:11;;;;;;;0.10;0.00;;;;;;;7.75;100.00;99922.72;4934036;29;20042;-84
2022/11/20 02:38:37;;;;;;;0.00;0.00;;;;;;;7.72;100.00;99926.41;4930379;29;20119;-84
2022/11/20 02:41:02;;;;;;;0.98;0.00;;;;;;;7.68;100.00;99924.25;4928486;29;20590;-84
2022/11/20 02:43:28;;;;;;;1.08;0.08;;;;;;;7.67;100.00;99931.22;4933733;29;20130;-84
2022/11/20 02:45:53;;;;;;;0.20;0.00;;;;;;;7.69;100.00;99925.88;4929464;29;20039;-84
2022/11/20 02:48:19;;;;;;;0.55;0.00;;;;;;;7.69;100.00;99928.47;4941888;29;20031;-84
2022/11/20 02:50:44;;;;;;;0.70;0.00;;;;;;;7.65;100.00;99926.16;4934968;29;20387;-83
2022/11/20 02:53:10;;;;;;;0.10;0.00;;;;;;;7.69;100.00;99910.31;4932871;29;20043;-83
2022/11/20 02:55:36;;;;;;;0.20;0.00;;;;;;;7.60;100.00;99937.91;4939196;28;20027;-83
2022/11/20 02:58:01;;;;;;;0.90;0.20;;;;;;;7.64;100.00;99926.28;4927935;29;20134;-84
2022/11/20 03:00:27;;;;;;;0.50;0.10;;;;;;;7.71;100.00;99929.16;4933393;29;20576;-83
2022/11/20 03:02:52;;;;;;;1.10;0.20;;;;;;;7.71;100.00;99936.94;4939161;29;20063;-83
2022/11/20 03:05:17;;;;;;;0.85;0.10;;;;;;;7.71;100.00;99917.00;4933974;29;20039;-83
2022/11/20 03:07:44;;;;;;;0.43;0.08;;;;;;;7.65;100.00;99925.34;4933445;29;20146;-84
2022/11/20 03:10:09;;;;;;;0.28;0.10;;;;;;;7.56;100.00;99921.00;4935148;29;20118;-84
2022/11/20 03:12:35;;;;;;;0.08;0.00;;;;;;;7.54;100.00;99917.75;4932971;29;20087;-84
2022/11/20 03:15:00;;;;;;;0.30;0.00;;;;;;;7.56;100.00;99908.03;4931203;29;20028;-83
2022/11/20 03:17:26;;;;;;;0.10;0.00;;;;;;;7.78;98.56;99919.88;4933077;29;20046;-83
2022/11/20 03:19:51;;;;;;;0.10;0.00;;;;;;;7.87;97.25;99922.44;4933199;29;20039;-83
2022/11/20 03:22:16;;;;;;;0.20;0.00;;;;;;;7.93;97.72;99929.66;4934207;29;20035;-83
2022/11/20 03:24:42;;;;;;;0.20;0.00;;;;;;;7.89;99.40;99928.31;4934731;29;20391;-83
2022/11/20 03:27:07;;;;;;;0.00;0.00;;;;;;;7.84;100.00;99929.69;4934216;29;20041;-83
2022/11/20 03:29:35;;;;;;;0.65;0.00;;;;;;;7.79;100.00;99924.91;4933127;29;20035;-83
2022/11/20 03:32:00;;;;;;;0.10;0.00;;;;;;;7.78;100.00;99919.88;4934499;29;20138;-83
2022/11/20 03:34:25;;;;;;;0.17;0.00;;;;;;;7.86;97.83;99920.00;4933886;28;20551;-83
2022/11/20 03:36:51;;;;;;;0.10;0.00;;;;;;;8.16;92.05;99913.75;4934460;29;20194;-83
2022/11/20 03:39:16;;;;;;;0.00;0.00;;;;;;;8.47;87.18;99924.72;4931994;29;20574;-83
2022/11/20 03:41:43;;;;;;;0.30;0.00;;;;;;;8.75;83.54;99913.34;4940484;29;20436;-83
2022/11/20 03:44:11;;;;;;;0.30;0.00;;;;;;;8.82;84.79;99911.81;4934682;28;20042;-83
2022/11/20 03:46:36;;;;;;;0.57;0.00;;;;;;;8.84;80.09;99909.88;4925361;29;20396;-83
2022/11/20 03:49:02;;;;;;;0.25;0.00;;;;;;;8.88;81.59;99911.22;4932582;28;20039;-83
2022/11/20 03:51:33;;;;;;;0.80;0.08;;;;;;;8.80;83.51;99924.13;4933503;28;20035;-84
2022/11/20 03:54:05;;;;;;;0.10;0.00;;;;;;;8.54;87.70;99933.53;4934033;29;20028;-84
2022/11/20 03:56:33;;;;;;;0.20;0.00;;;;;;;8.28;90.56;99926.41;4930752;29;20098;-84
2022/11/20 03:58:59;;;;;;;0.17;0.00;;;;;;;8.09;93.27;99944.63;4932901;29;20380;-83
2022/11/20 04:01:27;;;;;;;0.20;0.10;;;;;;;7.97;95.94;99946.59;4930875;29;20123;-84
2022/11/20 04:03:54;;;;;;;0.20;0.00;;;;;;;7.84;97.25;99934.88;4936888;29;20028;-83
2022/11/20 04:06:25;;;;;;;1.65;0.00;;;;;;;7.73;98.82;99933.25;4933158;29;20043;-84
2022/11/20 04:08:51;;;;;;;0.10;0.00;;;;;;;7.66;99.38;99927.78;4928763;29;20043;-83
2022/11/20 04:11:19;;;;;;;0.20;0.00;;;;;;;7.61;99.32;99923.97;4934033;28;20035;-83
2022/11/20 04:13:50;;;;;;;0.50;0.10;;;;;;;7.54;97.77;99928.94;4936024;29;20032;-83
2022/11/20 04:16:16;;;;;;;1.33;0.20;;;;;;;7.57;99.11;99928.63;4931515;29;20035;-83
2022/11/20 04:18:43;;;;;;;0.65;0.10;;;;;;;7.57;99.16;99933.00;4937031;29;20032;-83
2022/11/20 04:21:09;;;;;;;0.57;0.00;;;;;;;7.57;99.78;99927.81;4933658;29;20035;-84
2022/11/20 04:23:35;;;;;;;0.20;0.00;;;;;;;7.46;100.00;99940.94;4931757;29;20114;-84
2022/11/20 04:26:11;;;;;;;0.30;0.00;;;;;;;7.44;100.00;99933.28;4937714;29;20822;-83
2022/11/20 04:28:38;;;;;;;0.73;0.00;;;;;;;7.37;100.00;99945.16;4926088;29;20100;-83
2022/11/20 04:31:12;;;;;;;0.82;0.10;;;;;;;7.40;100.00;99936.28;4932255;29;20039;-83
2022/11/20 04:33:38;;;;;;;0.30;0.10;;;;;;;7.44;100.00;99927.28;4933636;29;20030;-83
2022/11/20 04:36:07;;;;;;;0.98;0.10;;;;;;;7.45;100.00;99928.94;4933696;29;20149;-83
2022/11/20 04:38:34;;;;;;;0.30;0.08;;;;;;;7.47;100.00;99937.38;4932734;29;20047;-83
2022/11/20 04:41:01;;;;;;;1.40;0.10;;;;;;;7.46;100.00;99923.59;4929039;29;20062;-83
2022/11/20 04:43:27;;;;;;;0.20;0.00;;;;;;;7.62;96.83;99926.44;4932632;29;20103;-84
2022/11/20 04:45:56;;;;;;;0.00;0.00;;;;;;;8.21;88.96;99937.50;4933835;29;20035;-83
2022/11/20 04:48:23;;;;;;;0.20;0.00;;;;;;;8.75;79.71;99935.91;4932470;29;20073;-83
2022/11/20 04:50:48;;;;;;;0.50;0.00;;;;;;;9.09;78.28;99936.91;4939410;28;20035;-84
2022/11/20 04:53:13;;;;;;;0.75;0.00;;;;;;;9.19;77.51;99936.84;4932354;29;20086;-84
2022/11/20 04:55:39;;;;;;;0.10;0.00;;;;;;;9.19;77.86;99939.44;4934080;29;20034;-83
2022/11/20 04:58:05;;;;;;;2.17;0.10;;;;;;;9.19;78.58;99940.25;4934515;28;20484;-83
2022/11/20 05:00:30;;;;;;;0.20;0.00;;;;;;;8.96;80.76;99952.06;4927792;29;20076;-84
2022/11/20 05:02:56;;;;;;;0.10;0.00;;;;;;;8.64;82.89;99957.69;4923504;29;20040;-83
2022/11/20 05:05:21;;;;;;;0.00;0.00;;;;;;;8.41;86.62;99946.88;4935278;29;20148;-83
2022/11/20 05:07:46;;;;;;;0.10;0.00;;;;;;;8.22;89.65;99962.47;4931354;29;20071;-83
2022/11/20 05:10:12;;;;;;;0.10;0.00;;;;;;;8.05;91.89;99961.44;4930457;29;20483;-83
2022/11/20 05:12:37;;;;;;;0.00;0.00;;;;;;;7.88;93.96;99960.41;4932880;29;20039;-83
2022/11/20 05:15:03;;;;;;;1.17;0.10;;;;;;;7.81;95.37;99966.28;4936075;29;20040;-83
2022/11/20 05:17:29;;;;;;;0.10;0.00;;;;;;;7.68;95.00;99961.38;4931728;28;20046;-83
2022/11/20 05:19:54;;;;;;;0.10;0.00;;;;;;;7.70;95.26;99963.81;4934275;29;20177;-83
2022/11/20 05:22:19;;;;;;;0.30;0.00;;;;;;;7.62;96.39;99972.28;4929749;29;20105;-83
2022/11/20 05:24:45;;;;;;;0.20;0.00;;;;;;;7.58;96.85;99965.72;4930170;29;20490;-83
2022/11/20 05:27:10;;;;;;;1.10;0.10;;;;;;;7.50;98.00;99974.22;4930460;29;20047;-83
2022/11/20 05:29:36;;;;;;;1.38;0.10;;;;;;;7.45;99.00;99979.00;4930488;29;20028;-83
2022/11/20 05:32:01;;;;;;;0.57;0.10;;;;;;;7.43;99.24;99980.91;4932089;29;20126;-83
2022/11/20 05:34:27;;;;;;;0.95;0.10;;;;;;;7.40;99.81;99983.75;4930811;29;20045;-83
2022/11/20 05:36:52;;;;;;;1.80;0.17;;;;;;;7.34;100.00;99976.53;4929580;29;20040;-83
2022/11/20 05:39:17;;;;;;;0.30;0.10;;;;;;;7.31;100.00;99984.56;4941779;28;20051;-83
2022/11/20 05:41:43;;;;;;;0.28;0.08;;;;;;;7.25;100.00;99987.69;4932951;29;20094;-83
2022/11/20 05:44:11;;;;;;;0.65;0.10;;;;;;;7.23;100.00;99989.59;4932383;29;20031;-83
2022/11/20 05:46:36;;;;;;;0.95;0.20;;;;;;;7.20;100.00;99995.06;4936209;28;20047;-83
2022/11/20 05:49:02;;;;;;;1.17;0.10;;;;;;;7.15;100.00;99989.44;4926381;29;20570;-83
2022/11/20 05:51:27;;;;;;;0.38;0.10;;;;;;;7.14;100.00;99987.81;4938858;29;20039;-83
2022/11/20 05:53:53;;;;;;;1.02;0.20;;;;;;;7.07;100.00;100008.28;4932344;29;20035;-83
2022/11/20 05:56:21;;;;;;;0.45;0.10;;;;;;;7.06;100.00;100005.81;4922316;29;20035;-83
2022/11/20 05:58:47;;;;;;;1.30;0.10;;;;;;;7.02;100.00;100010.44;4930939;29;20032;-84
2022/11/20 06:01:19;;;;;;;1.65;0.10;;;;;;;6.97;100.00;100010.84;4942811;29;20039;-83
2022/11/20 06:03:47;;;;;;;1.58;0.30;;;;;;;6.98;100.00;100004.72;4925839;29;20364;-83
2022/11/20 06:06:13;;;;;;;21.20;12.60;;;;;;;6.98;100.00;100015.06;4940785;28;20039;-84
2022/11/20 06:08:38;;;;;;;29.52;16.30;;;;;;;6.92;100.00;100013.00;4930912;29;20044;-83
2022/11/20 06:11:09;;;;;;;14.63;10.05;;;;;;;6.92;100.00;100014.78;4936408;29;20034;-83
2022/11/20 06:13:35;;;;;;;4.40;2.33;;;;;;;6.85;100.00;100017.06;4931537;28;20503;-83
2022/11/20 06:16:00;;;;;;;3.97;2.47;;;;;;;6.85;100.00;100009.31;4930875;29;20036;-83
2022/11/20 06:18:30;;;;;;;5.88;2.78;;;;;;;6.84;100.00;100019.78;4930275;29;20391;-83
2022/11/20 06:21:08;;;;;;;2.00;1.20;;;;;;;6.71;100.00;100032.94;4932988;29;20043;-83
2022/11/20 06:23:34;;;;;;;2.28;0.90;;;;;;;6.73;100.00;100028.47;4931124;29;20108;-83
2022/11/20 06:26:08;;;;;;;1.35;0.70;;;;;;;6.75;100.00;100023.16;4935131;29;20044;-83
2022/11/20 06:28:34;;;;;;;2.40;1.30;;;;;;;6.78;100.00;100028.06;4930133;29;20514;-83
2022/11/20 06:31:00;;;;;;;2.00;0.90;;;;;;;6.76;100.00;100030.78;4932963;29;20043;-83
2022/11/20 06:33:25;;;;;;;2.15;0.85;;;;;;;6.80;100.00;100042.53;4931944;29;20036;-83
2022/11/20 06:35:51;;;;;;;1.80;0.50;;;;;;;6.80;100.00;100036.53;4935007;29;20440;-83
2022/11/20 06:38:17;;;;;;;1.88;1.02;;;;;;;6.76;100.00;100048.91;4933375;29;20048;-83
2022/11/20 06:40:43;;;;;;;1.35;0.40;;;;;;;6.73;100.00;100056.13;4935986;29;20059;-83
2022/11/20 06:43:10;;;;;;;0.60;0.20;;;;;;;6.75;100.00;100062.81;4935788;29;20764;-83
2022/11/20 06:45:36;;;;;;;0.52;0.20;;;;;;;6.78;100.00;100072.09;4928788;29;20036;-83
2022/11/20 06:48:01;;;;;;;1.65;0.10;;;;;;;6.75;100.00;100067.16;4935520;29;20130;-83
2022/11/20 06:50:27;;;;;;;0.45;0.17;;;;;;;6.75;100.00;100070.59;4938755;29;20038;-83
2022/11/20 06:52:52;;;;;;;1.30;0.13;;;;;;;6.75;100.00;100073.16;4935153;29;20043;-83
2022/11/20 06:55:17;;;;;;;0.38;0.10;;;;;;;6.73;100.00;100077.66;4932193;29;20040;-83
2022/11/20 06:57:43;;;;;;;0.40;0.10;;;;;;;6.75;100.00;100080.94;4939489;29;20038;-83
2022/11/20 07:00:09;;;;;;;0.60;0.10;;;;;;;6.74;100.00;100081.88;4932833;29;20039;-83
2022/11/20 07:02:34;;;;;;;0.40;0.17;;;;;;;6.76;100.00;100081.75;4941901;28;20502;-83
2022/11/20 07:05:00;;;;;;;0.60;0.13;;;;;;;6.79;100.00;100073.75;4942557;29;20027;-83
2022/11/20 07:07:25;;;;;;;0.98;0.30;;;;;;;6.74;100.00;100094.84;4946056;28;20035;-83
2022/11/20 07:09:50;;;;;;;1.98;0.45;;;;;;;6.70;100.00;100079.69;4941977;29;20073;-83
2022/11/20 07:12:16;;;;;;;0.77;0.20;;;;;;;6.78;100.00;100093.63;4942201;29;20082;-83
2022/11/20 07:14:41;;;;;;;0.30;0.13;;;;;;;6.83;100.00;100096.66;4938765;29;20043;-83
2022/11/20 07:17:07;;;;;;;2.72;0.30;;;;;;;6.85;100.00;100099.13;4935908;29;20031;-83
2022/11/20 07:19:32;;;;;;;0.88;0.40;;;;;;;6.88;100.00;100102.28;4932067;29;20118;-83
2022/11/20 07:21:58;;;;;;;1.55;0.60;;;;;;;6.92;100.00;100108.84;4935008;29;20042;-84
2022/11/20 07:24:23;;;;;;;2.47;0.90;;;;;;;6.87;100.00;100120.53;4934086;29;20066;-83
2022/11/20 07:26:49;;;;;;;1.50;0.60;;;;;;;6.94;100.00;100117.28;4932621;29;20066;-84
2022/11/20 07:29:15;;;;;;;2.45;0.28;;;;;;;7.08;100.00;100128.25;4932761;28;20051;-83
2022/11/20 07:31:40;;;;;;;3.85;2.08;;;;;;;7.16;100.00;100128.41;4927811;29;20122;-83
2022/11/20 07:34:06;;;;;;;1.35;0.60;;;;;;;7.20;100.00;100135.78;4937681;29;20466;-83
2022/11/20 07:36:31;;;;;;;2.45;0.40;;;;;;;7.22;100.00;100133.88;4932574;29;20027;-83
2022/11/20 07:38:57;;;;;;;0.90;0.50;;;;;;;7.23;100.00;100143.31;4934080;29;20035;-83
2022/11/20 07:41:22;;;;;;;1.30;0.40;;;;;;;7.15;100.00;100145.72;4933733;29;20113;-83
2022/11/20 07:43:48;;;;;;;2.70;1.63;;;;;;;7.18;100.00;100145.47;4933670;29;20387;-83
2022/11/20 07:46:13;;;;;;;5.32;2.88;;;;;;;7.23;100.00;100145.06;4940922;29;20099;-84
2022/11/20 07:48:39;;;;;;;7.10;4.28;;;;;;;7.22;100.00;100146.03;4924151;29;20054;-83
2022/11/20 07:51:05;;;;;;;4.93;3.35;;;;;;;7.21;100.00;100145.19;4937328;29;20036;-85
2022/11/20 07:53:30;;;;;;;9.68;5.40;;;;;;;7.30;100.00;100151.38;4934240;29;20590;-84
2022/11/20 07:55:59;;;;;;;8.55;5.45;;;;;;;7.38;100.00;100155.91;4934660;29;20040;-83
2022/11/20 07:58:25;;;;;;;10.40;5.72;;;;;;;7.42;100.00;100155.50;4930209;29;20040;-84
2022/11/20 08:00:50;;;;;;;10.93;5.40;;;;;;;7.41;100.00;100160.84;4931737;29;20589;-84
2022/11/20 08:03:16;;;;;;;9.13;5.57;;;;;;;7.40;100.00;100159.19;4930953;29;20150;-84
2022/11/20 08:05:41;;;;;;;5.25;3.63;;;;;;;7.47;100.00;100161.13;4938899;29;20395;-84
2022/11/20 08:08:07;;;;;;;7.90;3.72;;;;;;;7.57;100.00;100167.13;4923849;29;20036;-84
2022/11/20 08:10:33;;;;;;;3.83;2.28;;;;;;;7.68;100.00;100165.41;4932627;29;20054;-84
2022/11/20 08:15:49;;;;;;;2.15;1.30;;;;;;;7.79;100.00;100180.84;4929571;29;20123;-84
2022/11/20 08:18:14;;;;;;;3.53;2.05;;;;;;;7.86;100.00;100180.19;4931759;29;20036;-83
2022/11/20 08:20:40;;;;;;;3.88;1.40;;;;;;;7.92;100.00;100186.63;4929369;29;20138;-83
2022/11/20 08:23:06;;;;;;;2.85;1.55;;;;;;;7.97;100.00;100185.25;4930673;29;20075;-82
2022/11/20 08:25:34;;;;;;;2.80;1.60;;;;;;;8.03;100.00;100183.91;4933191;28;20102;-83
2022/11/20 08:28:01;;;;;;;1.50;0.95;;;;;;;7.98;100.00;100186.91;4932734;28;20040;-83
2022/11/20 08:30:28;;;;;;;1.80;0.95;;;;;;;7.97;100.00;100190.44;4932537;29;20135;-82
2022/11/20 08:32:54;;;;;;;2.67;1.30;;;;;;;8.01;100.00;100187.59;4941782;28;20041;-82
2022/11/20 08:35:23;;;;;;;4.32;1.25;;;;;;;8.09;100.00;100191.13;4930563;29;20044;-83
2022/11/20 08:37:49;;;;;;;4.05;2.60;;;;;;;8.18;100.00;100203.28;4927175;28;20032;-85
2022/11/20 08:40:14;;;;;;;4.55;2.28;;;;;;;8.21;100.00;100207.38;4931400;29;20527;-83
2022/11/20 08:42:50;;;;;;;3.40;2.83;;;;;;;8.26;100.00;100213.81;4936600;29;20102;-83
2022/11/20 08:45:17;;;;;;;3.85;3.15;;;;;;;8.33;100.00;100208.94;4927077;29;20029;-83
2022/11/20 08:47:43;;;;;;;3.85;2.00;;;;;;;8.37;100.00;100217.28;4933144;29;20027;-83
2022/11/20 08:50:14;;;;;;;0.77;0.40;;;;;;;8.36;100.00;100210.44;4932787;29;20035;-83
2022/11/20 08:52:39;;;;;;;1.80;0.60;;;;;;;8.43;100.00;100214.97;4923842;29;20040;-83
2022/11/20 08:55:06;;;;;;;1.50;0.40;;;;;;;8.51;100.00;100214.25;4930344;29;20043;-84
2022/11/20 08:57:32;;;;;;;0.88;0.32;;;;;;;8.59;100.00;100219.56;4930227;29;20368;-84
2022/11/20 08:59:58;;;;;;;4.45;0.50;;;;;;;8.66;100.00;100218.06;4926731;29;20039;-84
2022/11/20 09:02:24;;;;;;;1.38;0.60;;;;;;;8.70;100.00;100222.03;4928995;28;20036;-82
2022/11/20 09:04:49;;;;;;;2.15;0.82;;;;;;;8.77;100.00;100227.50;4942420;28;20135;-83
2022/11/20 09:07:14;;;;;;;4.50;1.92;;;;;;;8.80;100.00;100229.81;4933745;28;20058;-83
2022/11/20 09:09:40;;;;;;;2.95;1.20;;;;;;;8.84;100.00;100232.00;4939324;29;20031;-83
2022/11/20 09:12:05;;;;;;;4.20;2.20;;;;;;;8.87;100.00;100231.72;4940224;29;20122;-83
2022/11/20 09:14:31;;;;;;;3.47;1.00;;;;;;;8.88;100.00;100235.97;4931131;29;20031;-83
2022/11/20 09:16:57;;;;;;;1.85;0.50;;;;;;;8.88;99.76;100238.56;4933375;29;20115;-83
2022/11/20 09:19:24;;;;;;;1.70;0.40;;;;;;;8.89;99.49;100229.00;4921964;29;20460;-83
2022/11/20 09:21:49;;;;;;;1.02;0.50;;;;;;;8.93;99.81;100238.16;4923203;29;20044;-83
2022/11/20 09:24:15;;;;;;;4.15;0.50;;;;;;;9.02;100.00;100245.09;4933336;29;20047;-83
2022/11/20 09:26:40;;;;;;;0.77;0.22;;;;;;;9.03;99.05;100240.72;4931542;29;20036;-83
2022/11/20 09:29:05;;;;;;;4.25;0.20;;;;;;;8.99;97.93;100240.16;4931414;29;20044;-83
2022/11/20 09:31:31;;;;;;;1.60;0.10;;;;;;;9.04;97.52;100244.94;4931060;29;20038;-83
2022/11/20 09:33:57;;;;;;;0.75;0.10;;;;;;;9.03;95.92;100243.31;4955610;28;20058;-83
2022/11/20 09:36:22;;;;;;;2.80;0.20;;;;;;;9.02;95.73;100239.88;4927887;29;20047;-85
2022/11/20 09:38:48;;;;;;;0.55;0.20;;;;;;;9.01;95.63;100253.84;4931874;29;20028;-83
2022/11/20 09:41:32;;;;;;;0.50;0.10;;;;;;;8.99;93.97;100240.16;4933601;29;20083;-84
2022/11/20 09:44:18;;;;;;;1.98;0.10;;;;;;;8.98;93.02;100239.34;4933310;28;20038;-84
2022/11/20 09:47:01;;;;;;;0.95;0.10;;;;;;;8.98;92.61;100249.75;4925867;29;20040;-85
2022/11/20 09:49:57;;;;;;;1.40;0.10;;;;;;;8.99;93.69;100237.56;4929756;29;20091;-85
2022/11/20 09:52:31;;;;;;;0.73;0.10;;;;;;;8.93;89.56;100236.38;4931385;29;20382;-86
2022/11/20 09:54:57;;;;;;;9.73;0.70;;;;;;;8.96;92.94;100236.09;4925652;29;20377;-83
2022/11/20 09:57:36;;;;;;;150.93;7.05;;;;;;;9.01;93.47;100243.44;4929886;29;20031;-83
2022/11/20 10:00:04;;;;;;;140.18;10.15;;;;;;;9.09;93.19;100229.75;4924481;29;20032;-83
2022/11/20 10:03:01;;;;;;;19.58;0.57;;;;;;;9.11;91.92;100233.03;4931543;28;20054;-84
2022/11/20 10:05:44;;;;;;;12.25;0.40;;;;;;;9.12;93.24;100235.50;4927735;28;20040;-84
2022/11/20 10:08:40;;;;;;;0.15;0.00;;;;;;;9.20;93.05;100237.41;4928274;29;20044;-85
2022/11/20 10:11:23;;;;;;;1.55;0.00;;;;;;;9.24;92.99;100234.38;4932264;29;20040;-84
2022/11/20 10:14:23;;;;;;;0.45;0.17;;;;;;;9.29;91.57;100231.34;4934262;29;20047;-84
2022/11/20 10:17:15;;;;;;;0.32;0.10;;;;;;;9.34;92.43;100238.72;4929078;29;20038;-84
2022/11/20 10:19:40;;;;;;;6.75;0.22;;;;;;;9.36;91.25;100229.81;4934134;29;20051;-84
2022/11/20 10:22:44;;;;;;;0.22;0.10;;;;;;;9.39;88.56;100232.13;4937948;29;20107;-83
2022/11/20 10:25:19;;;;;;;0.40;0.10;;;;;;;9.46;90.92;100235.78;4928185;29;20414;-83
2022/11/20 10:28:14;;;;;;;0.47;0.00;;;;;;;9.49;90.11;100232.06;4935690;29;20114;-84
2022/11/20 10:30:43;;;;;;;0.50;0.10;;;;;;;9.48;91.01;100230.44;4933533;29;20056;-84
2022/11/20 10:33:23;;;;;;;0.40;0.00;;;;;;;9.51;89.70;100230.97;4935438;29;20114;-84
2022/11/20 10:36:20;;;;;;;0.25;0.00;;;;;;;9.53;89.28;100230.84;4936165;29;20035;-83
2022/11/20 10:39:01;;;;;;;0.05;0.00;;;;;;;9.55;90.41;100232.31;4938708;29;20074;-84
2022/11/20 10:41:32;;;;;;;0.20;0.00;;;;;;;9.57;90.58;100230.41;4933914;29;20135;-85
2022/11/20 10:44:05;;;;;;;0.50;0.00;;;;;;;9.63;89.97;100235.03;4929397;29;20054;-84
2022/11/20 10:46:46;;;;;;;0.20;0.00;;;;;;;9.70;89.39;100227.47;4935880;28;20130;-84
2022/11/20 10:49:17;;;;;;;0.10;0.00;;;;;;;9.74;89.87;100228.84;4932493;29;20031;-84
2022/11/20 10:52:01;;;;;;;0.88;0.10;;;;;;;9.83;88.44;100234.94;4932370;29;20143;-83
2022/11/20 10:54:42;;;;;;;0.40;0.10;;;;;;;9.91;86.18;100235.88;4934572;29;20039;-83
2022/11/20 10:57:26;;;;;;;0.57;0.10;;;;;;;9.98;88.38;100225.66;4923932;29;20480;-83
2022/11/20 11:00:05;;;;;;;0.63;0.10;;;;;;;9.99;86.18;100232.50;4929611;29;20454;-83
2022/11/20 11:02:48;;;;;;;0.73;0.17;;;;;;;9.95;88.33;100242.38;4932015;29;20551;-84
2022/11/20 11:05:18;;;;;;;1.85;0.20;;;;;;;9.92;88.62;100236.69;4931788;29;20031;-84
2022/11/20 11:07:46;;;;;;;0.47;0.10;;;;;;;9.92;88.15;100239.28;4922697;29;20063;-85
2022/11/20 11:10:14;;;;;;;1.05;0.10;;;;;;;10.01;87.99;100247.97;4923322;29;20063;-83
2022/11/20 11:12:45;;;;;;;0.10;0.00;;;;;;;10.07;87.68;100248.22;4935435;29;20054;-83
2022/11/20 11:15:15;;;;;;;0.17;0.00;;;;;;;10.17;88.15;100251.59;4935505;29;20111;-84
2022/11/20 11:17:47;;;;;;;0.10;0.00;;;;;;;10.27;87.77;100244.56;4934903;29;20059;-84
2022/11/20 11:20:18;;;;;;;0.45;0.10;;;;;;;10.37;86.95;100241.06;4934300;29;20042;-84
2022/11/20 11:22:50;;;;;;;0.63;0.05;;;;;;;10.37;86.75;100243.69;4933589;29;20594;-84
2022/11/20 11:25:24;;;;;;;0.20;0.05;;;;;;;10.35;85.51;100237.81;4938589;29;20386;-84
2022/11/20 11:27:50;;;;;;;0.35;0.15;;;;;;;10.39;86.61;100241.75;4930131;29;20047;-85
2022/11/20 11:30:18;;;;;;;1.02;0.10;;;;;;;10.49;85.60;100237.25;4923338;29;20516;-84
2022/11/20 11:32:45;;;;;;;0.20;0.10;;;;;;;10.51;85.60;100241.34;4933204;29;20187;-84
2022/11/20 11:35:19;;;;;;;0.30;0.05;;;;;;;10.51;84.71;100240.53;4935393;29;20071;-84
2022/11/20 11:37:46;;;;;;;0.20;0.00;;;;;;;10.52;86.17;100229.97;4926905;29;20124;-83
2022/11/20 11:40:13;;;;;;;0.28;0.10;;;;;;;10.50;85.75;100238.91;4929545;29;20063;-83
2022/11/20 11:42:44;;;;;;;0.73;0.10;;;;;;;10.45;85.17;100233.31;4926626;29;20415;-84
2022/11/20 11:45:17;;;;;;;0.30;0.10;;;;;;;10.43;85.50;100232.66;4937923;29;20058;-83
2022/11/20 11:47:42;;;;;;;0.60;0.10;;;;;;;10.41;85.60;100230.19;4933158;29;20058;-83
2022/11/20 11:50:20;;;;;;;0.52;0.20;;;;;;;10.39;84.38;100228.72;4936004;29;20483;-84
2022/11/20 11:53:07;;;;;;;0.68;0.22;;;;;;;10.46;85.97;100232.34;4920521;29;20492;-83